Time;durP1;ratioP1;P1;durP2;ratioP2;P2;SDS_P1;SDS_P2;PMS_P1;PMS_P2;Temp;Humidity;BMP_temperature;BMP_pressure;BME280_temperature;BME280_humidity;BME280_pressure;Samples;Min_cycle;Max_cycle;Signal;HPM_P1;HPM_P2
2022/12/29 00:00:17;;;;;;;2.08;1.88;;;;;;;7.68;57.68;96057.22;4952729;29;20687;-66
2022/12/29 00:02:44;;;;;;;2.55;1.67;;;;;;;7.74;57.65;96061.56;4952962;29;20200;-65
2022/12/29 00:05:11;;;;;;;1.55;1.27;;;;;;;7.65;57.26;96052.38;4952996;29;20200;-68
2022/12/29 00:07:38;;;;;;;1.30;1.13;;;;;;;7.47;57.84;96050.47;4952717;29;20195;-67
2022/12/29 00:10:05;;;;;;;0.47;0.47;;;;;;;7.37;58.82;96054.53;4953018;29;20267;-67
2022/12/29 00:15:36;;;;;;;0.65;0.65;;;;;;;7.40;58.80;96065.34;4940509;29;20199;-67
2022/12/29 00:15:37;;;;;;;2.28;0.88;;;;;;;7.49;58.53;96064.13;4952559;29;20412;-67
2022/12/29 00:18:05;;;;;;;1.70;1.58;;;;;;;7.45;58.39;96073.34;4952825;29;20203;-65
2022/12/29 00:37:15;;;;;;;0.43;0.43;;;;;;;7.59;58.54;96071.50;4924292;29;20196;-63
2022/12/29 00:45:13;;;;;;;0.60;0.60;;;;;;;7.56;58.25;96069.28;4951462;29;20240;-65
2022/12/29 00:47:40;;;;;;;0.22;0.22;;;;;;;6.92;60.30;96077.94;4952049;29;20231;-67
2022/12/29 00:50:07;;;;;;;2.15;1.67;;;;;;;7.26;58.85;96081.25;4951333;29;20226;-64
2022/12/29 00:52:34;;;;;;;1.27;1.08;;;;;;;7.45;59.04;96080.38;4952272;29;20212;-65
2022/12/29 00:55:01;;;;;;;0.10;0.10;;;;;;;7.37;58.78;96073.59;4952782;29;20651;-64
2022/12/29 00:57:27;;;;;;;0.77;0.77;;;;;;;7.65;57.82;96083.69;4953650;29;20204;-65
2022/12/29 00:59:54;;;;;;;0.15;0.15;;;;;;;7.67;57.58;96081.69;4935647;29;20498;-67
2022/12/29 01:02:21;;;;;;;1.27;1.10;;;;;;;7.48;58.34;96074.75;4954082;29;20282;-66
2022/12/29 01:04:48;;;;;;;1.33;1.10;;;;;;;7.49;58.45;96074.53;4953706;29;20207;-66
2022/12/29 01:07:15;;;;;;;0.28;0.28;;;;;;;7.38;59.02;96082.22;4953230;29;20269;-62
2022/12/29 01:12:41;;;;;;;2.60;2.17;;;;;;;7.26;59.66;96074.25;4933641;29;20258;-65
2022/12/29 01:15:11;;;;;;;1.58;1.48;;;;;;;7.30;59.21;96074.63;4933708;29;20200;-65
2022/12/29 01:17:38;;;;;;;0.10;0.10;;;;;;;7.54;58.32;96066.09;4934918;29;20236;-64
2022/12/29 01:20:05;;;;;;;0.47;0.47;;;;;;;7.66;58.40;96064.44;4950795;29;20444;-66
2022/12/29 01:22:32;;;;;;;0.43;0.43;;;;;;;7.60;57.56;96063.47;4952413;29;20514;-64
2022/12/29 01:24:59;;;;;;;0.10;0.10;;;;;;;7.73;57.51;96066.00;4951881;29;20204;-63
2022/12/29 01:27:26;;;;;;;0.68;0.68;;;;;;;7.78;57.81;96068.78;4951981;28;20262;-64
2022/12/29 01:29:53;;;;;;;3.35;1.35;;;;;;;7.70;57.26;96055.19;4951450;29;20608;-66
2022/12/29 01:32:20;;;;;;;1.13;1.02;;;;;;;7.76;57.21;96059.56;4951343;29;20207;-65
2022/12/29 01:34:47;;;;;;;1.05;1.02;;;;;;;7.77;57.51;96055.94;4951735;29;20662;-66
2022/12/29 01:37:14;;;;;;;0.85;0.80;;;;;;;7.64;57.53;96056.81;4953235;29;20188;-66
2022/12/29 01:39:41;;;;;;;0.00;0.00;;;;;;;7.62;57.88;96058.84;4920820;29;20339;-65
2022/12/29 01:42:19;;;;;;;0.47;0.47;;;;;;;7.51;57.51;96056.06;4951847;29;20667;-64
2022/12/29 01:44:57;;;;;;;0.20;0.20;;;;;;;7.50;57.87;96050.06;4950057;29;20570;-65
2022/12/29 01:47:50;;;;;;;0.35;0.35;;;;;;;7.43;57.76;96058.91;4950361;29;20306;-66
2022/12/29 01:50:19;;;;;;;0.32;0.32;;;;;;;7.65;57.79;96039.34;4939147;28;20238;-68
2022/12/29 01:52:58;;;;;;;0.52;0.52;;;;;;;7.52;57.96;96036.84;4951650;29;20722;-65
2022/12/29 01:55:31;;;;;;;0.40;0.40;;;;;;;7.46;58.03;96032.44;4951323;29;20203;-64
2022/12/29 01:58:02;;;;;;;0.45;0.45;;;;;;;7.60;57.50;96033.97;4933675;29;20196;-67
2022/12/29 02:00:29;;;;;;;0.10;0.10;;;;;;;7.43;58.67;96035.44;4933826;29;20271;-64
2022/12/29 02:02:56;;;;;;;0.20;0.20;;;;;;;7.46;57.88;96033.25;4950969;29;20219;-65
2022/12/29 02:05:30;;;;;;;0.52;0.52;;;;;;;7.45;58.45;96030.81;4951119;29;20568;-66
2022/12/29 02:07:57;;;;;;;2.88;2.10;;;;;;;7.49;58.37;96032.00;4938303;29;20203;-66
2022/12/29 02:10:27;;;;;;;1.25;1.15;;;;;;;7.50;58.11;96023.19;4933367;29;20231;-66
2022/12/29 02:12:56;;;;;;;1.45;1.35;;;;;;;7.49;57.59;96026.78;4930950;29;20208;-68
2022/12/29 02:15:35;;;;;;;0.30;0.30;;;;;;;7.52;58.06;96026.41;4946046;29;20563;-65
2022/12/29 02:18:33;;;;;;;0.20;0.20;;;;;;;7.62;57.95;96037.16;4951380;29;20212;-66
2022/12/29 02:21:10;;;;;;;0.10;0.10;;;;;;;7.52;57.72;96026.41;4922364;29;20211;-65
2022/12/29 02:23:49;;;;;;;0.25;0.25;;;;;;;7.45;57.77;96025.59;4949994;29;20206;-67
2022/12/29 02:26:49;;;;;;;0.35;0.35;;;;;;;7.51;57.45;96028.19;4951329;29;20195;-66
2022/12/29 02:30:01;;;;;;;1.38;1.15;;;;;;;7.39;57.72;96021.25;4930691;29;20331;-66
2022/12/29 02:32:34;;;;;;;0.93;0.50;;;;;;;7.43;57.58;96015.38;4939792;29;20195;-64
2022/12/29 02:35:16;;;;;;;1.08;1.02;;;;;;;7.60;57.07;96023.53;4933463;29;20443;-63
2022/12/29 02:37:52;;;;;;;1.98;1.20;;;;;;;7.60;57.40;96023.53;4951051;29;20204;-66
2022/12/29 02:40:25;;;;;;;0.55;0.55;;;;;;;7.65;57.19;96026.31;4933434;29;20219;-65
2022/12/29 02:43:17;;;;;;;0.65;0.65;;;;;;;7.56;57.64;96032.78;4930748;29;20244;-65
2022/12/29 02:46:18;;;;;;;0.30;0.30;;;;;;;7.55;57.62;96028.59;4920248;29;20304;-67
2022/12/29 02:49:00;;;;;;;0.22;0.20;;;;;;;7.64;56.65;96024.72;4926722;29;20209;-64
2022/12/29 02:51:50;;;;;;;0.40;0.40;;;;;;;7.64;56.90;96019.50;4936580;29;20228;-67
2022/12/29 02:57:29;;;;;;;3.28;2.53;;;;;;;7.86;56.01;96012.94;4930505;29;20291;-64
2022/12/29 03:00:07;;;;;;;0.47;0.47;;;;;;;7.85;55.79;96024.38;4930494;29;20197;-64
2022/12/29 03:02:52;;;;;;;0.43;0.43;;;;;;;7.75;56.48;96018.84;4931895;29;20208;-63
2022/12/29 03:05:48;;;;;;;1.27;1.17;;;;;;;7.90;56.10;96022.72;4935323;29;20211;-67
2022/12/29 03:08:42;;;;;;;2.13;1.25;;;;;;;7.72;56.61;96011.44;4933547;29;20299;-63
2022/12/29 03:17:26;;;;;;;0.50;0.50;;;;;;;7.64;56.72;96014.28;4933571;29;20222;-66
2022/12/29 03:19:59;;;;;;;2.58;2.33;;;;;;;7.74;56.95;96014.59;4935121;29;20260;-66
2022/12/29 03:22:32;;;;;;;3.70;1.60;;;;;;;7.81;57.00;96010.16;4937147;29;20227;-66
2022/12/29 03:25:22;;;;;;;4.28;1.33;;;;;;;7.78;56.29;96015.78;4933110;29;20826;-63
2022/12/29 03:28:04;;;;;;;1.33;1.10;;;;;;;8.02;55.93;95999.38;4933206;29;20579;-68
2022/12/29 03:30:40;;;;;;;0.28;0.17;;;;;;;7.72;56.57;96011.44;4933349;29;20233;-64
2022/12/29 03:33:14;;;;;;;1.77;0.95;;;;;;;7.39;56.96;96003.00;4933192;29;20215;-64
2022/12/29 03:35:44;;;;;;;0.28;0.28;;;;;;;7.38;56.95;96011.81;4949185;29;20618;-67
2022/12/29 03:38:23;;;;;;;0.10;0.10;;;;;;;7.46;56.80;96011.56;4929989;29;20220;-68
2022/12/29 03:40:55;;;;;;;1.48;1.38;;;;;;;7.37;56.88;96010.22;4934575;29;20582;-67
2022/12/29 03:43:25;;;;;;;1.75;0.88;;;;;;;7.22;56.76;96009.69;4933254;29;20292;-67
2022/12/29 03:45:52;;;;;;;1.70;1.10;;;;;;;7.13;56.63;96012.50;4929731;29;20627;-64
2022/12/29 03:48:18;;;;;;;2.33;1.45;;;;;;;7.06;57.06;96013.56;4931332;29;20189;-63
2022/12/29 03:50:47;;;;;;;0.00;0.00;;;;;;;7.04;56.92;96026.00;4932868;29;20631;-66
2022/12/29 03:53:15;;;;;;;0.82;0.82;;;;;;;7.03;56.53;96027.78;4932643;29;20251;-64
2022/12/29 03:55:42;;;;;;;0.10;0.10;;;;;;;7.09;56.55;96029.59;4929631;29;20205;-66
2022/12/29 03:58:10;;;;;;;1.00;0.70;;;;;;;7.05;56.85;96028.38;4947407;28;20258;-65
2022/12/29 04:00:49;;;;;;;0.10;0.10;;;;;;;6.85;57.52;96012.00;4932786;29;20658;-64
2022/12/29 04:03:17;;;;;;;1.95;0.52;;;;;;;6.99;56.63;96031.81;4932830;29;20223;-69
2022/12/29 04:05:44;;;;;;;2.95;1.23;;;;;;;7.04;56.56;96033.81;4931766;29;20228;-62
2022/12/29 04:08:11;;;;;;;1.92;1.02;;;;;;;6.87;57.23;96033.47;4932461;29;20203;-67
2022/12/29 04:10:38;;;;;;;0.70;0.43;;;;;;;6.79;57.68;96033.66;4932675;29;20346;-66
2022/12/29 04:13:06;;;;;;;4.68;1.88;;;;;;;6.84;57.60;96033.06;4932704;29;20200;-64
2022/12/29 04:15:34;;;;;;;2.75;1.17;;;;;;;6.67;58.56;96034.50;4931278;29;20208;-65
2022/12/29 04:18:01;;;;;;;2.05;1.30;;;;;;;6.02;60.52;96028.31;4932729;29;20197;-68
2022/12/29 04:23:13;;;;;;;0.10;0.10;;;;;;;6.48;59.07;96033.50;4932304;29;20268;-64
2022/12/29 04:25:40;;;;;;;0.85;0.85;;;;;;;6.30;59.27;96035.94;4932186;29;20209;-63
2022/12/29 04:28:08;;;;;;;1.75;0.95;;;;;;;6.23;58.88;96029.94;4931836;29;20204;-64
2022/12/29 04:31:08;;;;;;;1.95;1.67;;;;;;;6.11;59.97;96029.72;4920919;29;20228;-64
2022/12/29 04:33:38;;;;;;;0.00;0.00;;;;;;;6.43;59.44;96032.50;4931663;29;20576;-66
2022/12/29 04:36:06;;;;;;;2.40;0.75;;;;;;;6.52;58.81;96045.13;4932160;29;20649;-65
2022/12/29 04:38:34;;;;;;;0.85;0.75;;;;;;;6.59;58.89;96043.31;4916510;29;20905;-66
2022/12/29 04:41:04;;;;;;;2.47;0.98;;;;;;;6.65;58.00;96050.31;4932121;29;20239;-65
2022/12/29 04:43:32;;;;;;;0.73;0.65;;;;;;;6.81;57.62;96043.88;4928929;29;20213;-65
2022/12/29 04:46:08;;;;;;;0.40;0.40;;;;;;;6.76;57.80;96057.53;4945144;29;21002;-67
2022/12/29 04:48:44;;;;;;;1.48;1.38;;;;;;;6.57;58.83;96063.53;4938747;29;20615;-66
2022/12/29 04:51:37;;;;;;;0.35;0.35;;;;;;;6.70;58.10;96063.53;4949963;28;20243;-65
2022/12/29 04:54:06;;;;;;;0.88;0.88;;;;;;;6.77;57.95;96063.53;4935053;29;20208;-63
2022/12/29 04:56:34;;;;;;;0.50;0.50;;;;;;;6.70;58.31;96067.94;4934699;29;20204;-67
2022/12/29 04:59:01;;;;;;;0.65;0.65;;;;;;;6.65;58.42;96059.94;4934904;29;20226;-65
2022/12/29 05:01:27;;;;;;;0.20;0.20;;;;;;;6.69;58.55;96061.94;4934274;29;21045;-65
2022/12/29 05:03:54;;;;;;;0.57;0.50;;;;;;;6.70;58.37;96068.75;4952261;29;20260;-65
2022/12/29 05:06:22;;;;;;;0.32;0.25;;;;;;;6.51;58.11;96058.34;4951798;29;20294;-64
2022/12/29 05:08:49;;;;;;;1.55;1.45;;;;;;;6.68;58.40;96065.53;4952192;29;20211;-66
2022/12/29 05:11:17;;;;;;;3.40;1.75;;;;;;;6.80;58.03;96056.13;4934671;29;20230;-63
2022/12/29 05:13:46;;;;;;;0.85;0.50;;;;;;;6.81;57.92;96065.53;4950630;29;20208;-64
2022/12/29 05:16:15;;;;;;;1.63;1.50;;;;;;;6.75;58.08;96061.13;4934734;29;20208;-64
2022/12/29 05:18:43;;;;;;;0.63;0.63;;;;;;;6.74;58.10;96062.13;4921364;29;20197;-64
2022/12/29 05:21:10;;;;;;;0.73;0.68;;;;;;;6.86;57.87;96057.88;4952868;29;20200;-68
2022/12/29 05:23:39;;;;;;;0.98;0.80;;;;;;;6.96;57.75;96053.06;4934649;29;20293;-63
2022/12/29 05:26:06;;;;;;;0.25;0.25;;;;;;;6.84;57.69;96051.31;4934468;29;20188;-64
2022/12/29 05:28:47;;;;;;;0.10;0.10;;;;;;;6.81;57.82;96057.72;4936090;29;20204;-65
2022/12/29 05:31:17;;;;;;;1.35;1.25;;;;;;;6.92;57.28;96057.09;4935594;29;20255;-66
2022/12/29 05:33:44;;;;;;;0.17;0.13;;;;;;;5.89;59.50;96063.94;4951729;29;20203;-65
2022/12/29 05:36:13;;;;;;;0.95;0.88;;;;;;;6.04;60.02;96061.94;4931792;29;20284;-65
2022/12/29 05:38:45;;;;;;;0.52;0.52;;;;;;;6.35;59.08;96066.59;4934347;29;20204;-65
2022/12/29 05:41:12;;;;;;;5.20;1.08;;;;;;;6.40;58.91;96062.38;4934698;29;20625;-63
2022/12/29 05:43:54;;;;;;;0.20;0.20;;;;;;;6.57;58.61;96063.53;4951493;29;20195;-66
2022/12/29 05:46:43;;;;;;;0.80;0.80;;;;;;;6.72;58.72;96071.94;4933666;29;20271;-65
2022/12/29 05:49:16;;;;;;;1.55;1.30;;;;;;;6.59;58.64;96066.75;4934310;29;20250;-63
2022/12/29 05:52:41;;;;;;;0.22;0.22;;;;;;;6.68;58.59;96070.75;4934156;29;20223;-64
2022/12/29 05:55:08;;;;;;;0.25;0.25;;;;;;;6.47;59.05;96078.78;4934362;29;20203;-66
2022/12/29 05:57:36;;;;;;;1.45;1.35;;;;;;;6.48;59.35;96080.38;4933790;29;20212;-63
2022/12/29 06:00:10;;;;;;;0.30;0.30;;;;;;;6.68;59.27;96080.38;4935097;29;20204;-64
2022/12/29 06:02:45;;;;;;;0.55;0.55;;;;;;;6.77;58.67;96082.56;4933764;29;20211;-67
2022/12/29 06:05:14;;;;;;;0.52;0.52;;;;;;;6.88;58.09;96081.94;4934541;29;20204;-62
2022/12/29 06:07:42;;;;;;;0.10;0.10;;;;;;;6.74;58.40;96075.16;4933638;29;20279;-63
2022/12/29 06:10:09;;;;;;;1.13;1.10;;;;;;;6.92;58.25;96083.13;4950140;29;20222;-67
2022/12/29 06:12:49;;;;;;;1.08;1.00;;;;;;;6.95;58.20;96087.94;4933819;29;20287;-64
2022/12/29 06:15:16;;;;;;;1.75;1.55;;;;;;;6.78;58.27;96080.75;4933904;29;20204;-62
2022/12/29 06:17:44;;;;;;;1.58;1.27;;;;;;;6.79;58.34;96088.38;4958974;28;20580;-62
2022/12/29 06:20:11;;;;;;;0.17;0.17;;;;;;;6.84;58.56;96083.34;4936749;29;20544;-64
2022/12/29 06:22:39;;;;;;;0.10;0.10;;;;;;;6.82;58.64;96076.75;4950751;29;20730;-62
2022/12/29 06:25:07;;;;;;;0.68;0.68;;;;;;;6.79;58.66;96080.56;4933465;29;20654;-63
2022/12/29 06:27:35;;;;;;;3.85;2.60;;;;;;;6.78;58.81;96086.78;4949080;29;20212;-63
2022/12/29 06:30:02;;;;;;;1.83;1.73;;;;;;;6.69;58.88;96087.19;4950263;29;20200;-66
2022/12/29 06:32:29;;;;;;;0.57;0.57;;;;;;;6.84;58.55;96085.94;4950942;28;20204;-65
2022/12/29 06:35:02;;;;;;;1.70;1.60;;;;;;;6.89;58.67;96087.97;4933727;29;20204;-65
2022/12/29 06:37:30;;;;;;;0.75;0.68;;;;;;;7.02;59.07;96080.94;4934628;29;20207;-66
2022/12/29 06:39:56;;;;;;;1.65;1.25;;;;;;;7.10;58.46;96085.09;4953442;29;20200;-68
2022/12/29 06:42:29;;;;;;;1.17;1.17;;;;;;;7.39;58.03;96083.81;4937475;29;20749;-65
2022/12/29 06:45:29;;;;;;;0.95;0.95;;;;;;;7.29;58.12;96099.09;4931228;29;20235;-62
2022/12/29 06:47:56;;;;;;;0.10;0.10;;;;;;;7.10;58.46;96085.91;4954595;29;20200;-64
2022/12/29 06:50:22;;;;;;;4.80;1.85;;;;;;;7.22;58.26;96099.91;4954549;29;20679;-66
2022/12/29 06:52:49;;;;;;;2.30;1.75;;;;;;;7.32;58.73;96098.69;4954504;29;20586;-66
2022/12/29 06:55:16;;;;;;;0.20;0.20;;;;;;;7.53;58.49;96101.00;4954603;29;20295;-63
2022/12/29 06:57:43;;;;;;;0.20;0.20;;;;;;;7.72;58.25;96110.56;4954331;28;20196;-63
2022/12/29 07:00:10;;;;;;;1.60;1.50;;;;;;;7.93;57.75;96099.81;4954436;29;20200;-64
2022/12/29 07:02:37;;;;;;;1.08;1.05;;;;;;;7.99;57.78;96096.38;4953805;29;20306;-66
2022/12/29 07:05:04;;;;;;;1.58;1.48;;;;;;;8.13;57.22;96095.28;4954301;29;20202;-65
2022/12/29 07:07:31;;;;;;;2.22;2.03;;;;;;;8.25;56.96;96106.66;4953824;29;20203;-65
2022/12/29 07:09:58;;;;;;;5.18;1.02;;;;;;;8.39;57.09;96102.16;4953878;29;20207;-66
2022/12/29 07:12:25;;;;;;;2.03;1.53;;;;;;;8.59;56.14;96093.19;4954330;29;20254;-62
2022/12/29 07:14:52;;;;;;;2.22;1.42;;;;;;;8.57;56.31;96089.97;4954451;29;20510;-62
2022/12/29 07:17:19;;;;;;;0.50;0.50;;;;;;;8.74;55.75;96095.47;4954428;29;20294;-62
2022/12/29 07:19:45;;;;;;;0.40;0.40;;;;;;;8.77;55.68;96090.59;4954105;29;20440;-64
2022/12/29 07:22:12;;;;;;;1.00;1.00;;;;;;;8.86;55.88;96094.53;4954047;29;20455;-64
2022/12/29 07:24:40;;;;;;;2.60;1.60;;;;;;;8.63;55.76;96076.03;4953645;29;20961;-63
2022/12/29 07:27:06;;;;;;;1.43;1.37;;;;;;;8.85;55.67;96087.69;4953670;29;20990;-66
2022/12/29 07:29:33;;;;;;;1.33;1.23;;;;;;;9.06;54.91;96089.13;4953900;29;20454;-66
2022/12/29 07:32:00;;;;;;;1.10;1.00;;;;;;;9.20;54.74;96088.75;4954001;29;20526;-67
2022/12/29 07:34:27;;;;;;;1.70;1.60;;;;;;;9.14;54.84;96091.47;4953655;29;20986;-67
2022/12/29 07:36:54;;;;;;;2.47;2.27;;;;;;;9.20;54.66;96086.16;4953322;29;20448;-64
2022/12/29 07:39:21;;;;;;;2.13;1.67;;;;;;;9.46;54.16;96094.72;4953654;29;20482;-65
2022/12/29 07:41:47;;;;;;;1.77;1.67;;;;;;;9.50;54.00;96090.66;4953539;29;20443;-66
2022/12/29 07:44:19;;;;;;;2.57;2.17;;;;;;;9.40;54.42;96096.38;4953674;29;20463;-66
2022/12/29 07:46:52;;;;;;;2.03;1.50;;;;;;;9.60;54.04;96086.50;4954098;29;20939;-66
2022/12/29 07:49:23;;;;;;;2.63;2.43;;;;;;;9.45;54.08;96093.13;4953721;28;20841;-66
2022/12/29 07:51:50;;;;;;;3.70;3.40;;;;;;;9.49;54.15;96095.06;4952930;29;20517;-65
2022/12/29 07:54:22;;;;;;;1.97;1.70;;;;;;;9.51;54.24;96092.22;4953281;29;20440;-67
2022/12/29 07:56:50;;;;;;;0.83;0.83;;;;;;;9.89;53.98;96098.03;4953307;29;20436;-65
2022/12/29 07:59:17;;;;;;;2.00;1.90;;;;;;;10.02;53.35;96095.19;4952855;29;20518;-65
2022/12/29 08:01:43;;;;;;;1.70;1.60;;;;;;;10.19;53.59;96090.97;4953429;29;20447;-66
2022/12/29 08:04:11;;;;;;;6.23;2.57;;;;;;;10.46;52.53;96097.41;4953143;29;20911;-66
2022/12/29 08:06:38;;;;;;;4.60;3.27;;;;;;;10.54;52.00;96094.47;4953854;29;20444;-66
2022/12/29 08:09:04;;;;;;;1.70;1.60;;;;;;;10.59;51.49;96102.47;4953020;29;20455;-67
2022/12/29 08:11:43;;;;;;;0.70;0.67;;;;;;;10.41;51.29;96097.28;4953023;29;20587;-66
2022/12/29 08:14:10;;;;;;;0.83;0.83;;;;;;;10.62;51.24;96102.00;4953072;29;20446;-66
2022/12/29 08:16:37;;;;;;;0.57;0.57;;;;;;;10.78;50.76;96090.06;4953282;29;20487;-65
2022/12/29 08:19:04;;;;;;;1.40;1.30;;;;;;;10.90;50.67;96086.41;4952918;29;20949;-66
2022/12/29 08:21:31;;;;;;;1.13;1.13;;;;;;;11.10;50.36;96094.72;4953118;29;20452;-67
2022/12/29 08:23:58;;;;;;;2.03;1.87;;;;;;;10.98;50.05;96096.53;4953036;29;20451;-65
2022/12/29 08:26:25;;;;;;;0.47;0.47;;;;;;;10.96;49.65;96093.38;4952769;29;21095;-65
2022/12/29 08:28:54;;;;;;;0.23;0.23;;;;;;;10.78;49.42;96090.06;4952560;29;20530;-65
2022/12/29 08:31:22;;;;;;;1.57;1.47;;;;;;;11.09;49.38;96082.63;4953010;29;20526;-66
2022/12/29 08:33:49;;;;;;;1.43;1.33;;;;;;;11.17;49.17;96073.63;4952891;29;20440;-65
2022/12/29 08:36:16;;;;;;;1.83;1.70;;;;;;;11.15;49.67;96086.16;4952858;29;20510;-65
2022/12/29 08:38:43;;;;;;;1.57;1.47;;;;;;;11.34;48.01;96084.19;4952703;29;20451;-65
2022/12/29 08:41:10;;;;;;;2.33;2.13;;;;;;;11.44;48.66;96084.44;4952143;29;20974;-65
2022/12/29 08:43:37;;;;;;;6.03;2.23;;;;;;;11.59;48.08;96085.53;4952680;29;20435;-66
2022/12/29 08:46:04;;;;;;;2.60;1.93;;;;;;;12.00;47.42;96079.25;4953194;29;20490;-64
2022/12/29 08:48:31;;;;;;;4.93;2.23;;;;;;;12.29;46.52;96078.19;4953141;29;20448;-65
2022/12/29 08:50:57;;;;;;;4.33;1.87;;;;;;;12.62;46.23;96072.97;4952787;29;20536;-66
2022/12/29 08:53:24;;;;;;;3.10;2.80;;;;;;;12.90;45.52;96070.22;4952773;29;20451;-65
2022/12/29 08:55:59;;;;;;;1.77;1.13;;;;;;;13.32;44.68;96078.47;4951886;29;20604;-65
2022/12/29 08:58:40;;;;;;;1.97;1.80;;;;;;;13.01;44.83;96071.97;4934977;29;20816;-68
2022/12/29 09:01:09;;;;;;;2.00;1.60;;;;;;;13.43;44.08;96068.91;4934617;29;20447;-66
2022/12/29 09:03:37;;;;;;;5.27;2.63;;;;;;;13.38;45.21;96066.97;4934539;29;21045;-65
2022/12/29 09:06:23;;;;;;;1.17;1.03;;;;;;;13.67;45.01;96063.13;4940456;29;20439;-71
2022/12/29 09:08:50;;;;;;;1.70;1.60;;;;;;;13.64;44.72;96058.38;4951868;29;20506;-67
2022/12/29 09:11:23;;;;;;;2.10;1.90;;;;;;;13.70;43.70;96064.50;4951898;29;21028;-65
2022/12/29 09:13:50;;;;;;;2.63;1.47;;;;;;;13.60;43.90;96048.56;4951366;29;20459;-65
2022/12/29 09:16:17;;;;;;;12.77;9.57;;;;;;;14.06;42.94;96048.81;4953655;29;20479;-64
2022/12/29 09:18:44;;;;;;;2.23;2.13;;;;;;;14.15;43.51;96046.50;4952276;29;20444;-64
2022/12/29 09:21:13;;;;;;;1.53;1.43;;;;;;;13.63;43.30;96053.34;4952472;29;20451;-62
2022/12/29 09:23:42;;;;;;;1.73;1.47;;;;;;;13.90;43.29;96047.03;4934230;29;20527;-67
2022/12/29 09:26:09;;;;;;;0.77;0.77;;;;;;;13.78;42.47;96045.59;4951735;29;20979;-65
2022/12/29 09:28:36;;;;;;;3.50;1.87;;;;;;;14.31;42.93;96040.38;4951632;29;20982;-66
2022/12/29 09:31:03;;;;;;;3.53;2.33;;;;;;;13.91;42.28;96045.22;4951960;29;20542;-65
2022/12/29 09:33:33;;;;;;;1.77;1.63;;;;;;;13.51;43.14;96040.28;4951532;29;20510;-66
2022/12/29 09:36:00;;;;;;;1.13;1.03;;;;;;;13.94;43.02;96034.19;4951899;29;20483;-67
2022/12/29 09:38:28;;;;;;;1.50;1.40;;;;;;;13.89;42.31;96047.28;4951319;29;21049;-65
2022/12/29 09:41:08;;;;;;;5.00;2.33;;;;;;;14.26;43.15;96040.28;4951902;29;20498;-67
2022/12/29 09:43:53;;;;;;;2.37;1.97;;;;;;;14.26;42.43;96032.38;4951672;29;20558;-66
2022/12/29 09:46:29;;;;;;;1.47;1.33;;;;;;;14.28;42.33;96030.31;4951306;29;20506;-66
2022/12/29 09:49:08;;;;;;;0.83;0.83;;;;;;;14.35;41.58;96023.00;4951133;28;20439;-68
2022/12/29 09:51:37;;;;;;;0.80;0.80;;;;;;;14.26;41.83;96032.38;4951277;29;20826;-67
2022/12/29 09:54:22;;;;;;;0.53;0.40;;;;;;;14.02;43.03;96020.56;4951694;29;20511;-64
2022/12/29 09:56:51;;;;;;;0.60;0.60;;;;;;;14.12;42.04;96015.41;4951609;29;20476;-69
2022/12/29 09:59:24;;;;;;;3.63;3.30;;;;;;;14.44;43.35;96013.56;4951170;29;20514;-66
2022/12/29 10:02:04;;;;;;;6.37;3.57;;;;;;;14.64;42.40;96010.28;4951286;29;20967;-65
2022/12/29 10:04:32;;;;;;;1.70;1.60;;;;;;;14.62;42.04;96009.75;4950812;29;20482;-65
2022/12/29 10:07:21;;;;;;;1.70;1.40;;;;;;;14.02;42.06;96005.53;4947702;29;20558;-64
2022/12/29 10:10:10;;;;;;;2.00;1.90;;;;;;;14.13;42.60;96001.16;4950058;29;20535;-66
2022/12/29 10:12:51;;;;;;;2.30;0.83;;;;;;;13.95;42.90;95998.88;4947746;28;20471;-66
2022/12/29 10:15:41;;;;;;;1.33;1.23;;;;;;;13.92;43.29;95994.91;4953726;29;20509;-64
2022/12/29 10:18:18;;;;;;;0.40;0.40;;;;;;;13.79;43.96;95997.94;4946834;29;20525;-64
2022/12/29 10:20:57;;;;;;;0.70;0.70;;;;;;;14.08;43.23;95993.22;4954655;29;20455;-65
2022/12/29 10:23:29;;;;;;;3.17;1.53;;;;;;;14.25;42.87;95992.03;4955274;29;20486;-64
2022/12/29 10:25:58;;;;;;;1.47;0.67;;;;;;;14.24;43.01;95992.28;4952579;29;20439;-63
2022/12/29 10:28:50;;;;;;;1.97;1.27;;;;;;;14.46;41.51;95987.75;4954752;29;20444;-70
2022/12/29 10:31:29;;;;;;;8.10;2.07;;;;;;;14.36;44.15;95987.66;4949768;29;20499;-67
2022/12/29 10:34:01;;;;;;;0.60;0.60;;;;;;;13.80;43.08;95982.91;4954717;29;20455;-64
2022/12/29 10:36:38;;;;;;;0.37;0.37;;;;;;;14.03;43.06;95986.03;4948618;29;20447;-66
2022/12/29 10:39:05;;;;;;;1.80;1.60;;;;;;;13.69;44.13;95975.94;4940579;29;20459;-68
2022/12/29 10:41:40;;;;;;;12.07;7.63;;;;;;;13.99;43.64;95971.00;4927819;29;20454;-64
2022/12/29 10:44:13;;;;;;;16.50;8.93;;;;;;;14.16;43.66;95969.00;4941504;29;20440;-64
2022/12/29 10:46:42;;;;;;;1.30;1.30;;;;;;;14.41;42.46;95966.63;4933692;29;20518;-65
2022/12/29 10:49:16;;;;;;;0.93;0.93;;;;;;;14.50;42.23;95965.09;4934449;29;20465;-68
2022/12/29 10:51:51;;;;;;;1.33;1.20;;;;;;;13.90;44.57;95967.22;4952028;29;20538;-65
2022/12/29 10:54:27;;;;;;;3.70;2.07;;;;;;;13.93;43.45;95958.81;4950780;29;20444;-65
2022/12/29 10:57:06;;;;;;;1.73;1.60;;;;;;;14.00;43.48;95964.66;4951351;29;20469;-66
2022/12/29 10:59:50;;;;;;;1.40;1.30;;;;;;;13.88;45.34;95956.13;4941536;29;20812;-63
2022/12/29 11:02:50;;;;;;;0.73;0.73;;;;;;;14.19;44.47;95947.44;4949147;29;20483;-66
2022/12/29 11:05:37;;;;;;;1.63;1.17;;;;;;;13.50;43.66;95932.59;4953251;29;20441;-65
2022/12/29 11:08:10;;;;;;;1.43;1.33;;;;;;;13.35;44.19;95935.84;4954759;28;20540;-64
2022/12/29 11:10:42;;;;;;;1.17;1.17;;;;;;;13.06;44.92;95948.41;4954191;28;20447;-66
2022/12/29 11:13:16;;;;;;;0.60;0.60;;;;;;;13.49;44.37;95947.56;4947528;29;21080;-67
2022/12/29 11:15:46;;;;;;;2.70;2.47;;;;;;;13.72;44.34;95933.34;4941877;29;20883;-64
2022/12/29 11:18:33;;;;;;;4.00;2.23;;;;;;;13.94;44.40;95926.16;4953746;29;20561;-66
2022/12/29 11:21:02;;;;;;;4.97;2.80;;;;;;;13.98;44.79;95929.84;4953625;29;20447;-66
2022/12/29 11:23:33;;;;;;;9.53;4.10;;;;;;;13.77;43.39;95918.38;4953170;28;20440;-65
2022/12/29 11:26:05;;;;;;;3.77;2.17;;;;;;;13.61;44.02;95934.28;4953244;29;20980;-68
2022/12/29 11:28:33;;;;;;;2.63;1.50;;;;;;;13.13;43.97;95927.97;4953727;29;20468;-65
2022/12/29 11:31:02;;;;;;;6.90;1.93;;;;;;;12.76;45.28;95932.22;4953292;29;20443;-64
2022/12/29 11:33:29;;;;;;;0.87;0.87;;;;;;;12.70;45.70;95927.91;4953101;29;21031;-66
2022/12/29 11:36:08;;;;;;;1.03;0.57;;;;;;;13.03;45.14;95927.03;4953325;29;20542;-67
2022/12/29 11:38:39;;;;;;;0.97;0.93;;;;;;;13.08;45.32;95929.75;4949945;29;20471;-68
2022/12/29 11:41:11;;;;;;;1.40;1.30;;;;;;;13.41;44.31;95924.31;4953335;29;20448;-64
2022/12/29 11:43:43;;;;;;;2.67;1.63;;;;;;;13.66;44.08;95915.88;4952823;29;20460;-66
2022/12/29 11:46:17;;;;;;;0.87;0.87;;;;;;;13.94;44.21;95907.72;4952563;29;20490;-67
2022/12/29 11:48:46;;;;;;;0.80;0.80;;;;;;;14.04;43.78;95913.84;4941103;29;20540;-63
2022/12/29 11:51:27;;;;;;;6.47;2.73;;;;;;;14.05;44.44;95904.13;4952611;29;20444;-69
2022/12/29 11:53:59;;;;;;;17.20;2.83;;;;;;;14.28;43.24;95909.03;4953376;29;20454;-64
2022/12/29 11:56:40;;;;;;;3.37;1.43;;;;;;;14.87;42.35;95912.28;4936195;29;20450;-64
2022/12/29 11:59:36;;;;;;;0.83;0.73;;;;;;;15.96;40.60;95912.88;4952828;29;20485;-64
2022/12/29 12:02:34;;;;;;;1.80;1.70;;;;;;;16.76;38.98;95901.41;4952807;29;20543;-67
2022/12/29 12:05:22;;;;;;;1.80;1.60;;;;;;;15.43;39.33;95905.38;4938863;29;20533;-66
2022/12/29 12:07:56;;;;;;;1.37;1.27;;;;;;;16.84;38.32;95892.94;4953029;29;20526;-69
2022/12/29 12:10:29;;;;;;;1.10;1.10;;;;;;;16.76;37.84;95891.63;4953131;29;20807;-65
2022/12/29 12:13:08;;;;;;;3.80;1.37;;;;;;;17.83;37.24;95877.56;4935649;29;20487;-64
2022/12/29 12:15:43;;;;;;;1.30;1.20;;;;;;;17.90;35.91;95878.06;4935416;29;20534;-63
2022/12/29 12:18:39;;;;;;;10.70;7.90;;;;;;;19.07;35.23;95881.97;4935161;29;20447;-63
2022/12/29 12:21:16;;;;;;;5.83;5.20;;;;;;;19.81;33.99;95877.78;4942296;29;20931;-66
2022/12/29 12:23:59;;;;;;;3.73;2.33;;;;;;;19.57;33.42;95879.75;4952499;29;20454;-66
2022/12/29 12:26:56;;;;;;;1.90;1.77;;;;;;;18.78;34.79;95867.97;4952671;29;20286;-65
2022/12/29 12:29:42;;;;;;;1.60;1.37;;;;;;;18.72;34.78;95869.09;4943419;29;20447;-66
2022/12/29 12:32:15;;;;;;;2.50;2.03;;;;;;;18.48;36.08;95863.00;4951663;29;20247;-64
2022/12/29 12:34:44;;;;;;;3.00;2.67;;;;;;;18.84;35.05;95856.22;4951463;28;20443;-67
2022/12/29 12:37:39;;;;;;;2.50;1.97;;;;;;;19.08;34.24;95861.50;4951275;28;20200;-68
2022/12/29 12:40:35;;;;;;;2.60;2.40;;;;;;;19.47;34.10;95861.28;4951371;29;20443;-62
2022/12/29 12:43:32;;;;;;;16.70;12.77;;;;;;;20.64;32.29;95854.56;4952345;29;20506;-66